August 18, 2022

Time Code Weather Temp. Visibility Ceiling Wind METAR/SPECI
21:30
M
20 °C 10 km+ 2,300 ft 320° 320° 9 kt METAR LFBC 181930Z AUTO 32009KT 290V350 9999 BKN023 BKN030 BKN037 20/16 Q1019
21:00
M
20 °C 10 km+ 2,200 ft 320° 320° 8 kt METAR LFBC 181900Z AUTO 32008KT 280V360 9999 BKN022 BKN029 BKN041 20/16 Q1019
20:30
M
20 °C 10 km+ 2,100 ft 320° 320° 12 kt METAR LFBC 181830Z AUTO 32012KT 9999 BKN021 BKN027 20/16 Q1019
20:00
M
20 °C 10 km+ 2,500 ft 320° 320° 10 kt METAR LFBC 181800Z AUTO 32010KT 290V360 9999 SCT020 BKN025 BKN033 20/17 Q1019
19:30
V
20 °C 10 km+ - 310° 310° 11 kt METAR LFBC 181730Z AUTO 31011KT 270V350 9999 FEW039/// SCT049/// //////TCU 20/17 Q1019
19:00
V
21 °C 10 km+ 6,600 ft 310° 310° 11 kt METAR LFBC 181700Z AUTO 31011KT 280V340 9999 FEW017/// SCT052/// BKN066/// //////CB 21/17 Q1019
18:30
M
22 °C 10 km+ 2,000 ft 320° 320° 13 kt METAR LFBC 181630Z AUTO 32013KT 290V350 9999 BKN020 BKN037 BKN064 22/17 Q1018 NOSIG
18:00
V
22 °C 10 km+ 6,800 ft 320° 320° 12 kt METAR LFBC 181600Z AUTO 32012KT 290V350 9999 FEW022 OVC068 22/16 Q1018 TEMPO 4900 -SHRA BKN020TCU
17:30
V
23 °C 10 km+ - 330° 330° 14 kt METAR LFBC 181530Z AUTO 33014KT 290V010 9999 FEW022 SCT064 23/16 Q1018 NOSIG
17:00
M
23 °C 10 km+ 2,300 ft 300° 300° 13 kt METAR LFBC 181500Z AUTO 30013KT 9999 BKN023 BKN029 BKN070 23/17 Q1018 NOSIG
16:30
M
22 °C 10 km+ 2,300 ft 310° 310° 13 kt METAR LFBC 181430Z AUTO 31013KT 280V360 9999 BKN023 BKN031 22/16 Q1018 TEMPO 31015G25KT
16:00
M
23 °C 10 km+ 2,400 ft 310° 310° 13 kt METAR LFBC 181400Z AUTO 31013KT 280V340 9999 BKN024 23/16 Q1018 TEMPO 31015G25KT
15:30
M
23 °C 10 km+ 2,300 ft 320° 320° 13 kt METAR LFBC 181330Z AUTO 32013KT 280V340 9999 BKN023 BKN030 23/16 Q1018 TEMPO 31015G25KT
15:00
M
24 °C 10 km+ 2,500 ft 310° 310° 14 kt METAR LFBC 181300Z AUTO 31014KT 280V340 9999 BKN025 24/17 Q1017 TEMPO 31015G25KT
14:30
M
23 °C 10 km+ 2,700 ft 320° 320° 12 kt METAR LFBC 181230Z AUTO 32012KT 280V360 9999 BKN027 23/16 Q1017 TEMPO 31015G25KT
14:00
V
23 °C 10 km+ - 330° 330° 12 kt METAR LFBC 181200Z AUTO 33012KT 290V360 9999 SCT029/// //////CB 23/15 Q1017 TEMPO 31015G25KT BECMG BKN020
13:30
V
23 °C 10 km+ - 320° 320° 11 kt METAR LFBC 181130Z AUTO 32011KT 9999 SCT028/// //////CB 23/16 Q1017 TEMPO 31015G25KT BECMG BKN020
13:00
M
23 °C 10 km+ 2,600 ft 320° 320° 11 kt METAR LFBC 181100Z AUTO 32011KT 290V350 9999 BKN026/// BKN033/// BKN054/// ///CB 23/16 Q1017 TEMPO 31015G25KT BECMG BKN020
12:30
M
22 °C 10 km+ 2,300 ft 320° 320° 8 kt METAR LFBC 181030Z AUTO 32008KT 280V360 9999 BKN023/// BKN029/// BKN036/// //////CB 22/16 Q1017 TEMPO 31015G25KT BECMG BKN020
12:00
V
21 °C 10 km+ 14,000 ft 330° 330° 5 kt METAR LFBC 181000Z AUTO 33005KT 290V020 9999 FEW022/// BKN140/// //////CB 21/17 Q1017 BECMG BKN020
11:30
V
20 °C 10 km+ 3,200 ft 350° 350° 8 kt METAR LFBC 180930Z AUTO 35008KT 320V030 9999 FEW018/// BKN032/// BKN050/// ///CB 20/17 Q1017 BECMG BKN020
11:00
V
21 °C 10 km+ 3,000 ft 310° 310° 6 kt METAR LFBC 180900Z AUTO 31006KT 280V340 9999 BKN030/// BKN037/// ///CB 21/16 Q1016 TEMPO 4900 -SHRA
10:30
V
21 °C 10 km+ - 310° 310° 6 kt METAR LFBC 180830Z AUTO 31006KT 270V340 9999 SCT021/// SCT030/// //////CB 21/16 Q1016 TEMPO 4900 -SHRA
10:00
V
21 °C 10 km+ - 360° 360° 4 kt METAR LFBC 180800Z AUTO 36004KT 300V040 9999 FEW017 21/17 Q1016 TEMPO 4900 -SHRA BKN020TCU
09:30
V
19 °C 10 km+ - Var Var 1 kt METAR LFBC 180730Z AUTO VRB01KT CAVOK 19/17 Q1016 TEMPO 4900 -SHRA BKN020TCU
09:00
V
18 °C 10 km+ - Var 000° 0 kt METAR LFBC 180700Z AUTO 00000KT CAVOK 18/18 Q1016 TEMPO 4900 -SHRA BKN020TCU
08:30
V
17 °C 10 km+ - Var 000° 0 kt METAR LFBC 180630Z AUTO 00000KT CAVOK 17/17 Q1016 TEMPO 4900 -SHRA BKN020TCU
08:00
V
16 °C 8 km - 320° 320° 1 kt METAR LFBC 180600Z AUTO 32001KT 8000 FEW003 16/15 Q1015 TEMPO 0800 BCFG
07:30
L
15 °C 650 m - 060° 060° 2 kt METAR LFBC 180530Z AUTO 06002KT 0700 0650 R24/0650D FG VV/// 15/15 Q1015 BECMG 7000 NSW SCT020
07:00
L
15 °C 600 m - 070° 070° 2 kt METAR LFBC 180500Z AUTO 07002KT 0750 0600 R24/0500D FG VV/// 15/14 Q1015 TEMPO 0800 BCFG BECMG SCT020
06:30
L
15 °C 550 m - Var 000° 0 kt METAR LFBC 180430Z AUTO 00000KT 1100 0550 R24/1000U BCFG NSC 15/15 Q1015
06:00
L
16 °C 1.1 km - Var Var 3 kt METAR LFBC 180400Z AUTO VRB03KT 9000 1100 R24/1400D FEW002 16/16 Q1015
05:30
M
15 °C 7 km - 190° 190° 2 kt METAR LFBC 180330Z AUTO 19002KT 7000 FEW020/// SCT034/// //////CB 15/15 Q1015
05:00
V
15 °C 10 km+ - Var Var 2 kt METAR LFBC 180300Z AUTO VRB02KT 9999 FEW036/// SCT070/// //////CB 15/14 Q1015
04:30
V
17 °C 10 km+ 7,600 ft 210° 210° 5 kt METAR LFBC 180230Z AUTO 21005KT 180V340 9999 -RA FEW024/// SCT062/// BKN076/// //////CB 17/17 Q1015
04:00
V
16 °C 10 km+ - Var Var 1 kt METAR LFBC 180200Z AUTO VRB01KT 9999 //////CB 16/15 Q1015
03:30
V
15 °C 10 km+ - Var 000° 0 kt METAR LFBC 180130Z AUTO 00000KT 9999 //////CB 15/15 Q1015
03:00
V
15 °C 10 km+ - Var 000° 0 kt METAR LFBC 180100Z AUTO 00000KT 9999 FEW023 15/15 Q1015
02:30
M
15 °C 10 km+ 2,600 ft 110° 110° 1 kt METAR LFBC 180030Z AUTO 11001KT 9999 BKN026 BKN032 15/14 Q1015
02:00
V
16 °C 10 km+ - 090° 090° 4 kt METAR LFBC 180000Z AUTO 09004KT 9999 FEW023 16/14 Q1015
01:30
V
16 °C 10 km+ - Var Var 1 kt METAR LFBC 172330Z AUTO VRB01KT 9999 FEW024 16/15 Q1015
01:00
V
16 °C 10 km+ - Var 000° 0 kt METAR LFBC 172300Z AUTO 00000KT 9999 FEW027 16/15 Q1015
00:30
V
17 °C 10 km+ - Var 000° 0 kt METAR LFBC 172230Z AUTO 00000KT 9999 FEW049/// SCT090/// //////TCU 17/15 Q1015
00:00
V
17 °C 10 km+ - Var 000° 0 kt METAR LFBC 172200Z AUTO 00000KT 9999 FEW023 SCT034 17/15 Q1015

August 17, 2022

Time Code Weather Temp. Visibility Ceiling Wind METAR/SPECI
23:30
V
19 °C 10 km+ - 300° 300° 2 kt METAR LFBC 172130Z AUTO 30002KT 9999 //////CB 19/16 Q1015
23:00
V
19 °C 10 km+ - 310° 310° 2 kt METAR LFBC 172100Z AUTO 31002KT 9999 FEW022/// ///CB 19/16 Q1014
22:30
V
19 °C 10 km+ 11,000 ft 310° 310° 2 kt METAR LFBC 172030Z AUTO 31002KT 9999 FEW024 SCT096 BKN110 19/16 Q1014
22:00
V
20 °C 10 km+ 6,000 ft 290° 290° 3 kt METAR LFBC 172000Z AUTO 29003KT 250V330 9999 FEW022/// SCT047/// BKN060/// ///CB 20/16 Q1014
21:30
V
20 °C 10 km+ 5,200 ft 300° 300° 4 kt METAR LFBC 171930Z AUTO 30004KT 9999 SCT023/// SCT034/// BKN052/// //////TCU 20/16 Q1014
21:00
V
21 °C 10 km+ - 290° 290° 6 kt METAR LFBC 171900Z AUTO 29006KT 260V330 9999 FEW027 21/16 Q1013
20:30
V
21 °C 10 km+ - 300° 300° 7 kt METAR LFBC 171830Z AUTO 30007KT 240V340 9999 FEW028 21/15 Q1013
20:00
M
22 °C 10 km+ 2,800 ft 290° 290° 8 kt METAR LFBC 171800Z AUTO 29008KT 260V320 9999 BKN028/// //////CB 22/15 Q1013 BECMG FEW035
19:30
V
22 °C 10 km+ - 290° 290° 8 kt METAR LFBC 171730Z AUTO 29008KT 260V340 9999 FEW029/// ///CB 22/15 Q1013 BECMG FEW035
19:00
V
22 °C 10 km+ - 300° 300° 10 kt METAR LFBC 171700Z AUTO 30010KT 270V330 9999 FEW030 22/14 Q1013 NOSIG
18:30
V
23 °C 10 km+ - 290° 290° 8 kt METAR LFBC 171630Z AUTO 29008KT 250V340 9999 SCT030 SCT035 23/15 Q1012 NOSIG
18:00
V
23 °C 10 km+ 3,100 ft 290° 290° 9 kt METAR LFBC 171600Z AUTO 29009KT 260V320 9999 BKN031 BKN044 23/16 Q1012 NOSIG
17:30
V
24 °C 10 km+ 3,300 ft 270° 270° 10 kt METAR LFBC 171530Z AUTO 27010KT 230V330 9999 BKN033 24/16 Q1013 NOSIG
17:00
V
24 °C 10 km+ - 290° 290° 9 kt METAR LFBC 171500Z AUTO 29009KT 9999 SCT035 24/15 Q1012 NOSIG
16:30
V
25 °C 10 km+ - 270° 270° 10 kt METAR LFBC 171430Z AUTO 27010KT 220V310 9999 FEW037 25/15 Q1012 NOSIG
16:00
V
25 °C 10 km+ 3,600 ft 250° 250° 9 kt METAR LFBC 171400Z AUTO 25009KT 220V280 9999 BKN036 25/14 Q1012 NOSIG
15:30
V
25 °C 10 km+ - 260° 260° 10 kt METAR LFBC 171330Z AUTO 26010KT 220V300 9999 SCT035 25/14 Q1012 NOSIG
15:00
V
24 °C 10 km+ 3,600 ft 280° 280° 9 kt METAR LFBC 171300Z AUTO 28009KT 250V310 9999 BKN036/// BKN058/// //////CB 24/15 Q1012 BECMG SCT025
14:30
V
25 °C 10 km+ 3,400 ft 260° 260° 8 kt METAR LFBC 171230Z AUTO 26008KT 210V310 9999 BKN034/// BKN042/// BKN050/// ///CB 25/15 Q1012 BECMG SCT025
14:00
V
24 °C 10 km+ 3,200 ft 280° 280° 7 kt METAR LFBC 171200Z AUTO 28007KT 250V320 9999 BKN032/// BKN040/// ///CB 24/15 Q1011 BECMG SCT025
13:30
V
24 °C 10 km+ 3,400 ft 260° 260° 5 kt METAR LFBC 171130Z AUTO 26005KT 190V300 9999 BKN034/// BKN042/// //////CB 24/15 Q1011 BECMG SCT025
13:00
V
23 °C 10 km+ 3,300 ft 270° 270° 7 kt METAR LFBC 171100Z AUTO 27007KT 240V310 9999 BKN033/// BKN047/// BKN064/// ///TCU 23/15 Q1011 BECMG SCT025
12:30
V
23 °C 10 km+ 3,400 ft 250° 250° 7 kt METAR LFBC 171030Z AUTO 25007KT 210V300 9999 BKN034/// BKN100/// //////TCU 23/14 Q1012 BECMG SCT025
12:00
V
23 °C 10 km+ 9,200 ft 240° 240° 7 kt METAR LFBC 171000Z AUTO 24007KT 200V280 9999 FEW025/// SCT031/// BKN092/// //////CB 23/15 Q1011 BECMG SCT025
11:30
V
21 °C 10 km+ 9,600 ft 220° 220° 5 kt METAR LFBC 170930Z AUTO 22005KT 170V270 9999 SCT027/// SCT034/// BKN096/// //////CB 21/16 Q1011 BECMG SCT025
11:00
V
20 °C 10 km+ - 230° 230° 6 kt METAR LFBC 170900Z AUTO 23006KT 9999 //////CB 20/16 Q1011 BECMG SCT025
10:30
V
19 °C 10 km+ 4,100 ft 260° 260° 7 kt METAR LFBC 170830Z AUTO 26007KT 230V310 9999 SCT018/// BKN041/// BKN058/// ///CB 19/16 Q1011 BECMG SCT025
10:00
M
20 °C 10 km+ 1,300 ft 210° 210° 9 kt METAR LFBC 170800Z AUTO 21009KT 9999 BKN013/// BKN030/// BKN068/// ///CB 20/18 Q1011 TEMPO 3200 SHRA BKN020CB
09:30
V
20 °C 10 km+ 10,000 ft 190° 190° 7 kt METAR LFBC 170730Z AUTO 19007KT 160V220 9999 SCT009/// BKN100/// OVC150/// //////CB 20/19 Q1010 TEMPO 3200 SHRA
09:00
I
18 °C 10 km+ 800 ft 140° 140° 4 kt METAR LFBC 170700Z AUTO 14004KT 9999 BKN008/// BKN015/// OVC160/// //////CB 18/17 Q1010 TEMPO 3200 SHRA BKN020CB
08:30
I
17 °C 10 km+ 800 ft 100° 100° 4 kt METAR LFBC 170630Z AUTO 10004KT 9999 BKN008/// OVC013/// //////CB 17/16 Q1010 TEMPO 3200 SHRA BKN020CB BECMG 19012KT
08:00
I
17 °C 10 km+ 800 ft 090° 090° 7 kt METAR LFBC 170600Z AUTO 09007KT 080V140 9999 BKN008/// BKN012/// BKN028/// ///CB 17/16 Q1010 TEMPO 3200 SHRA BKN020CB
07:30
I
17 °C 4.8 km 900 ft 070° 070° 5 kt METAR LFBC 170530Z AUTO 07005KT 4800 -RA BR BKN009/// BKN025/// BKN056/// //////CB 17/16 Q1010 TEMPO TSRA BKN020CB BECMG 19012KT
07:00
M
18 °C 10 km+ 2,700 ft 200° 200° 13 kt METAR LFBC 170500Z AUTO 20013KT 170V230 9999 FEW008/// BKN027/// BKN054/// ///CB 18/17 Q1010
06:30
V
19 °C 10 km+ - 190° 190° 8 kt METAR LFBC 170430Z AUTO 19008KT 9999 //////CB 19/16 Q1009
06:00
V
19 °C 10 km+ - 220° 220° 9 kt METAR LFBC 170400Z AUTO 22009KT 9999 //////CB 19/16 Q1009
05:30
V
20 °C 10 km+ - 220° 220° 9 kt METAR LFBC 170330Z AUTO 22009KT 9999 //////CB 20/17 Q1009
05:00
V
20 °C 10 km+ 14,000 ft 220° 220° 10 kt METAR LFBC 170300Z AUTO 22010KT 200V260 9999 FEW028/// BKN140/// BKN150/// ///CB 20/16 Q1009
04:30
V
20 °C 10 km+ - 230° 230° 10 kt METAR LFBC 170230Z AUTO 23010KT 9999 //////CB 20/16 Q1009
04:00
V
20 °C 10 km+ - 220° 220° 13 kt METAR LFBC 170200Z AUTO 22013KT 9999 //////CB 20/16 Q1009
03:30
V
20 °C 10 km+ - 220° 220° 11 kt METAR LFBC 170130Z AUTO 22011KT 9999 //////CB 20/16 Q1010
03:00
V
20 °C 10 km+ - 230° 230° 10 kt METAR LFBC 170100Z AUTO 23010KT 9999 //////CB 20/15 Q1010
02:30
V
20 °C 10 km+ - 220° 220° 11 kt METAR LFBC 170030Z AUTO 22011KT 9999 ///TCU 20/15 Q1010
02:00
V
20 °C 10 km+ - 230° 230° 8 kt METAR LFBC 170000Z AUTO 23008KT 9999 //////CB 20/15 Q1010
01:30
V
20 °C 10 km+ 8,800 ft 240° 240° 6 kt METAR LFBC 162330Z AUTO 24006KT 9999 FEW027/// BKN088/// ///TCU 20/15 Q1010
01:00
V
19 °C 10 km+ - 260° 260° 5 kt METAR LFBC 162300Z AUTO 26005KT 220V280 9999 FEW035 19/14 Q1010
00:30
V
20 °C 10 km+ - 250° 250° 6 kt METAR LFBC 162230Z AUTO 25006KT 220V280 CAVOK 20/15 Q1010
00:00
V
20 °C 10 km+ - 240° 240° 4 kt METAR LFBC 162200Z AUTO 24004KT CAVOK 20/15 Q1010

August 16, 2022

Time Code Weather Temp. Visibility Ceiling Wind METAR/SPECI
23:30
V
20 °C 10 km+ - 260° 260° 4 kt METAR LFBC 162130Z AUTO 26004KT 9999 //////CB 20/15 Q1010 BECMG NSC
23:00
V
20 °C 10 km+ - Var Var 3 kt METAR LFBC 162100Z AUTO VRB03KT CAVOK 20/15 Q1010 NOSIG
22:30
V
20 °C 10 km+ - 270° 270° 4 kt METAR LFBC 162030Z AUTO 27004KT 9999 //////CB 20/16 Q1010 BECMG SCT025 SCT120
22:00
V
21 °C 10 km+ - 270° 270° 5 kt METAR LFBC 162000Z AUTO 27005KT 240V300 CAVOK 21/16 Q1010 NOSIG
21:30
V
21 °C 10 km+ - Var Var 3 kt METAR LFBC 161930Z AUTO VRB03KT CAVOK 21/16 Q1010 NOSIG
21:00
V
21 °C 10 km+ - 290° 290° 7 kt METAR LFBC 161900Z AUTO 29007KT CAVOK 21/16 Q1009 NOSIG
20:30
V
22 °C 10 km+ - 290° 290° 8 kt METAR LFBC 161830Z AUTO 29008KT 260V330 CAVOK 22/17 Q1009 NOSIG
20:00
V
22 °C 10 km+ - 280° 280° 8 kt METAR LFBC 161800Z AUTO 28008KT 240V330 CAVOK 22/16 Q1009 NOSIG
19:30
V
23 °C 10 km+ - 280° 280° 9 kt METAR LFBC 161730Z AUTO 28009KT CAVOK 23/16 Q1009 NOSIG
19:00
V
24 °C 10 km+ - 290° 290° 9 kt METAR LFBC 161700Z AUTO 29009KT CAVOK 24/15 Q1008 NOSIG
18:30
V
24 °C 10 km+ - 330° 330° 6 kt METAR LFBC 161630Z AUTO 33006KT 260V020 CAVOK 24/15 Q1008 NOSIG
18:00
V
25 °C 10 km+ - 330° 330° 8 kt METAR LFBC 161600Z AUTO 33008KT 280V010 CAVOK 25/15 Q1008 NOSIG
17:30
V
24 °C 10 km+ - 300° 300° 10 kt METAR LFBC 161530Z AUTO 30010KT 9999 FEW027 24/16 Q1008 NOSIG
17:00
V
24 °C 10 km+ 12,000 ft 330° 330° 9 kt METAR LFBC 161500Z AUTO 33009KT 290V010 9999 SCT024 BKN120 24/17 Q1008 NOSIG
Older data

We and third parties follow your internet behavior on our website with cookies. If you continue, we assume you agree with our cookie policy. Learn more